createdAt,value
2022-09-17T00:05:04.706Z,99422.00
2022-09-17T00:11:29.403Z,99427.00
2022-09-17T00:17:31.671Z,99422.00
2022-09-17T00:23:33.854Z,99411.00
2022-09-17T00:29:36.296Z,99422.00
2022-09-17T00:35:38.323Z,99414.00
2022-09-17T00:41:40.528Z,99408.00
2022-09-17T00:47:46.819Z,99408.00
2022-09-17T00:53:49.226Z,99404.00
2022-09-17T00:59:51.549Z,99393.00
2022-09-17T01:06:02.643Z,99406.00
2022-09-17T01:12:04.816Z,99411.00
2022-09-17T01:18:48.673Z,99408.00
2022-09-17T01:25:29.154Z,99420.00
2022-09-17T01:31:40.451Z,99421.00
2022-09-17T01:38:09.862Z,99413.00
2022-09-17T01:44:20.745Z,99404.00
2022-09-17T01:50:33.953Z,99402.00
2022-09-17T01:56:40.963Z,99397.00
2022-09-17T02:03:07.466Z,99385.00
2022-09-17T02:09:30.299Z,99400.00
2022-09-17T02:15:40.414Z,99393.00
2022-09-17T02:21:57.602Z,99394.00
2022-09-17T02:28:15.929Z,99392.00
2022-09-17T02:34:18.763Z,99382.00
2022-09-17T02:40:28.078Z,99387.00
2022-09-17T02:46:33.272Z,99367.00
2022-09-17T02:52:58.880Z,99375.00
2022-09-17T02:59:06.018Z,99359.00
2022-09-17T03:05:08.861Z,99353.00
2022-09-17T03:11:13.102Z,99335.00
2022-09-17T03:17:15.457Z,99324.00
2022-09-17T03:23:17.485Z,99326.00
2022-09-17T03:29:19.587Z,99314.00
2022-09-17T03:35:21.756Z,99308.00
2022-09-17T03:41:24.579Z,99311.00
2022-09-17T03:47:29.650Z,99289.00
2022-09-17T03:53:32.167Z,99289.00
2022-09-17T03:59:34.222Z,99279.00
2022-09-17T04:05:36.550Z,99275.00
2022-09-17T04:11:39.065Z,99276.00
2022-09-17T04:17:41.444Z,99265.00
2022-09-17T04:23:43.484Z,99267.00
2022-09-17T04:29:45.752Z,99258.00
2022-09-17T04:35:48.287Z,99258.00
2022-09-17T04:41:50.082Z,99240.00
2022-09-17T04:47:52.377Z,99216.00
2022-09-17T04:53:54.604Z,99247.00
2022-09-17T04:59:56.747Z,99164.00
2022-09-17T05:05:58.957Z,99158.00
2022-09-17T05:12:01.175Z,99172.00
2022-09-17T05:18:03.704Z,99176.00
2022-09-17T05:24:05.906Z,99202.00
2022-09-17T05:30:09.205Z,99209.00
2022-09-17T05:36:11.287Z,99224.00
2022-09-17T05:42:13.443Z,99196.00
2022-09-17T05:48:16.388Z,99220.00
2022-09-17T05:54:18.495Z,99231.00
2022-09-17T06:00:20.882Z,99240.00
2022-09-17T06:06:23.432Z,99246.00
2022-09-17T06:12:25.905Z,99266.00
2022-09-17T06:18:31.498Z,99269.00
2022-09-17T06:24:33.762Z,99264.00
2022-09-17T06:30:37.111Z,99209.00
2022-09-17T06:36:39.458Z,99228.00
2022-09-17T06:42:41.482Z,99241.00
2022-09-17T06:48:43.629Z,99240.00
2022-09-17T06:54:45.628Z,99255.00
2022-09-17T07:00:48.108Z,99256.00
2022-09-17T07:06:50.137Z,99239.00
2022-09-17T07:12:52.690Z,99227.00
2022-09-17T07:18:54.947Z,99245.00
2022-09-17T07:24:57.042Z,99253.00
2022-09-17T07:30:59.392Z,99245.00
2022-09-17T07:37:01.648Z,99227.00
2022-09-17T07:43:03.901Z,99214.00
2022-09-17T07:49:06.112Z,99211.00
2022-09-17T07:55:08.593Z,99215.00
2022-09-17T08:01:12.189Z,99217.00
2022-09-17T08:07:14.482Z,99191.00
2022-09-17T08:13:16.698Z,99194.00
2022-09-17T08:19:19.462Z,99181.00
2022-09-17T08:25:21.767Z,99188.00
2022-09-17T08:31:26.861Z,99182.00
2022-09-17T08:37:32.569Z,99186.00
2022-09-17T08:43:56.410Z,99176.00
2022-09-17T08:50:01.615Z,99181.00
2022-09-17T08:56:21.809Z,99194.00
2022-09-17T09:02:40.816Z,99171.00
2022-09-17T09:09:00.732Z,99192.00
2022-09-17T09:15:08.344Z,99219.00
2022-09-17T09:21:25.839Z,99219.00
2022-09-17T09:27:29.427Z,99224.00
2022-09-17T09:33:36.037Z,99234.00
2022-09-17T09:39:45.877Z,99273.00
2022-09-17T09:45:55.132Z,99282.00
2022-09-17T09:52:19.325Z,99254.00
2022-09-17T09:58:39.100Z,99241.00
2022-09-17T10:04:41.250Z,99243.00
2022-09-17T10:11:06.956Z,99234.00
2022-09-17T10:17:26.540Z,99227.00
2022-09-17T10:23:32.074Z,99249.00
2022-09-17T10:29:35.022Z,99227.00
2022-09-17T10:35:37.185Z,99215.00
2022-09-17T10:41:57.882Z,99224.00
2022-09-17T10:48:00.569Z,99227.00
2022-09-17T10:54:23.804Z,99242.00
2022-09-17T11:00:29.141Z,99236.00
2022-09-17T11:07:01.889Z,99240.00
2022-09-17T11:13:16.192Z,99234.00
2022-09-17T11:19:30.652Z,99245.00
2022-09-17T11:25:45.200Z,99222.00
2022-09-17T11:32:03.617Z,99216.00
2022-09-17T11:38:19.770Z,99242.00
2022-09-17T11:44:31.844Z,99241.00
2022-09-17T11:50:41.271Z,99245.00
2022-09-17T11:56:46.559Z,99237.00
2022-09-17T12:09:33.546Z,99230.00
2022-09-17T12:15:39.532Z,99223.00
2022-09-17T12:21:46.333Z,99237.00
2022-09-17T12:28:00.721Z,99242.00
2022-09-17T12:34:11.622Z,99257.00
2022-09-17T12:40:24.425Z,99255.00
2022-09-17T12:46:41.395Z,99263.00
2022-09-17T12:52:54.368Z,99262.00
2022-09-17T12:59:05.710Z,99257.00
2022-09-17T13:05:45.603Z,99222.00
2022-09-17T13:12:02.836Z,99200.00
2022-09-17T13:18:27.399Z,99217.00
2022-09-17T13:24:31.519Z,99198.00
2022-09-17T13:31:09.329Z,99150.00
2022-09-17T13:37:22.249Z,99129.00
2022-09-17T13:43:28.071Z,99111.00
2022-09-17T13:49:30.149Z,99104.00
2022-09-17T13:55:36.111Z,99078.00
2022-09-17T14:02:02.221Z,99082.00
2022-09-17T14:08:13.712Z,99092.00
2022-09-17T14:14:35.631Z,99076.00
2022-09-17T14:20:37.901Z,99077.00
2022-09-17T14:26:48.685Z,99092.00
2022-09-17T14:33:19.555Z,99099.00
2022-09-17T14:39:30.124Z,99091.00
2022-09-17T14:45:42.858Z,99080.00
2022-09-17T14:51:45.127Z,99081.00
2022-09-17T14:57:52.093Z,99082.00
2022-09-17T15:04:13.269Z,99088.00
2022-09-17T15:10:17.986Z,99094.00
2022-09-17T15:16:22.665Z,99121.00
2022-09-17T15:22:40.269Z,99111.00
2022-09-17T15:28:44.589Z,99114.00
2022-09-17T15:35:19.458Z,99097.00
2022-09-17T15:41:30.179Z,99087.00
2022-09-17T15:47:50.480Z,99081.00
2022-09-17T15:54:05.221Z,99082.00
2022-09-17T16:00:16.779Z,99081.00
2022-09-17T16:06:18.762Z,99080.00
2022-09-17T16:12:25.203Z,99069.00
2022-09-17T16:18:28.014Z,99056.00
2022-09-17T16:24:30.355Z,99042.00
2022-09-17T16:30:32.923Z,99041.00
2022-09-17T16:36:35.734Z,99015.00
2022-09-17T16:42:37.904Z,99021.00
2022-09-17T16:48:41.306Z,99036.00
2022-09-17T16:54:43.226Z,99039.00
2022-09-17T17:00:45.938Z,99048.00
2022-09-17T17:06:48.134Z,99051.00
2022-09-17T17:12:50.325Z,99067.00
2022-09-17T17:18:53.640Z,99062.00
2022-09-17T17:24:55.601Z,99056.00
2022-09-17T17:30:57.698Z,99074.00
2022-09-17T17:36:59.998Z,99057.00
2022-09-17T17:43:02.090Z,99049.00
2022-09-17T17:49:04.268Z,99044.00
2022-09-17T17:55:07.402Z,99032.00
2022-09-17T18:01:29.681Z,99008.00
2022-09-17T18:07:31.826Z,98984.00
2022-09-17T18:13:38.107Z,98983.00
2022-09-17T18:19:40.084Z,98971.00
2022-09-17T18:25:42.107Z,98992.00
2022-09-17T18:31:45.340Z,99012.00
2022-09-17T18:37:47.479Z,99023.00
2022-09-17T18:43:49.510Z,99035.00
2022-09-17T18:49:51.503Z,99034.00
2022-09-17T18:55:55.387Z,99043.00
2022-09-17T19:01:57.558Z,99049.00
2022-09-17T19:07:59.834Z,99055.00
2022-09-17T19:14:01.791Z,99062.00
2022-09-17T19:20:04.698Z,99075.00
2022-09-17T19:26:07.884Z,99075.00
2022-09-17T19:32:09.932Z,99074.00
2022-09-17T19:38:15.234Z,99065.00
2022-09-17T19:44:17.381Z,99035.00
2022-09-17T19:50:19.437Z,99009.00
2022-09-17T19:56:24.208Z,98999.00
2022-09-17T20:02:26.271Z,98989.00
2022-09-17T20:08:28.858Z,98977.00
2022-09-17T20:14:31.092Z,98977.00
2022-09-17T20:20:33.090Z,98968.00
2022-09-17T20:26:36.066Z,98965.00
2022-09-17T20:32:38.005Z,98931.00
2022-09-17T20:45:02.121Z,98905.00
2022-09-17T20:51:24.846Z,98919.00
2022-09-17T20:57:26.927Z,98926.00
2022-09-17T21:03:29.691Z,98918.00
2022-09-17T21:09:31.972Z,98906.00
2022-09-17T21:15:34.025Z,98908.00
2022-09-17T21:21:36.064Z,98906.00
2022-09-17T21:27:38.057Z,98902.00
2022-09-17T21:33:41.417Z,98893.00
2022-09-17T21:39:43.510Z,98891.00
2022-09-17T21:45:45.714Z,98884.00
2022-09-17T21:51:47.865Z,98887.00
2022-09-17T21:57:50.045Z,98877.00
2022-09-17T22:03:52.825Z,98856.00
2022-09-17T22:09:55.014Z,98836.00
2022-09-17T22:15:58.979Z,98838.00
2022-09-17T22:22:01.347Z,98838.00
2022-09-17T22:28:20.525Z,98852.00
2022-09-17T22:34:23.866Z,98843.00
2022-09-17T22:40:26.498Z,98837.00
2022-09-17T22:46:31.360Z,98826.00
2022-09-17T22:52:33.470Z,98822.00
2022-09-17T22:58:36.320Z,98811.00
2022-09-17T23:04:38.507Z,98799.00
2022-09-17T23:10:41.995Z,98801.00
2022-09-17T23:16:46.905Z,98808.00
2022-09-17T23:22:49.106Z,98820.00
2022-09-17T23:28:51.840Z,98802.00
2022-09-17T23:34:54.022Z,98800.00
2022-09-17T23:40:56.368Z,98792.00
2022-09-17T23:46:59.086Z,98793.00
2022-09-17T23:53:01.189Z,98800.00
2022-09-17T23:59:03.513Z,98770.00
